createdAt,value
2019-05-21T00:01:09.062Z,100.00
2019-05-21T00:02:45.322Z,100.00
2019-05-21T00:04:28.329Z,100.00
2019-05-21T00:05:58.326Z,100.00
2019-05-21T00:07:36.438Z,100.00
2019-05-21T00:09:11.763Z,100.00
2019-05-21T00:10:53.917Z,100.00
2019-05-21T00:12:30.140Z,100.00
2019-05-21T00:14:07.218Z,100.00
2019-05-21T00:15:43.045Z,100.00
2019-05-21T00:17:27.043Z,100.00
2019-05-21T00:19:07.851Z,100.00
2019-05-21T00:20:45.656Z,100.00
2019-05-21T00:22:24.076Z,100.00
2019-05-21T00:23:59.981Z,100.00
2019-05-21T00:25:36.321Z,100.00
2019-05-21T00:27:12.327Z,100.00
2019-05-21T00:29:23.234Z,100.00
2019-05-21T00:31:34.304Z,100.00
2019-05-21T00:33:48.774Z,100.00
2019-05-21T00:35:59.243Z,100.00
2019-05-21T00:38:11.290Z,100.00
2019-05-21T00:40:22.720Z,100.00
2019-05-21T00:42:05.420Z,100.00
2019-05-21T00:43:53.850Z,100.00
2019-05-21T00:45:32.110Z,100.00
2019-05-21T00:47:10.312Z,100.00
2019-05-21T00:48:46.390Z,100.00
2019-05-21T00:50:22.681Z,100.00
2019-05-21T00:52:07.168Z,100.00
2019-05-21T00:53:36.015Z,100.00
2019-05-21T00:55:13.846Z,100.00
2019-05-21T00:56:49.430Z,100.00
2019-05-21T00:58:26.105Z,100.00
2019-05-21T01:00:08.539Z,100.00
2019-05-21T01:01:44.240Z,100.00
2019-05-21T01:03:27.191Z,100.00
2019-05-21T01:05:07.615Z,100.00
2019-05-21T01:06:43.284Z,100.00
2019-05-21T01:08:20.212Z,100.00
2019-05-21T01:09:56.975Z,100.00
2019-05-21T01:11:32.932Z,100.00
2019-05-21T01:13:08.504Z,100.00
2019-05-21T01:14:44.522Z,100.00
2019-05-21T01:16:20.359Z,100.00
2019-05-21T01:17:56.355Z,100.00
2019-05-21T01:19:34.569Z,100.00
2019-05-21T01:21:10.326Z,100.00
2019-05-21T01:22:45.839Z,100.00
2019-05-21T01:24:24.112Z,100.00
2019-05-21T01:25:59.649Z,100.00
2019-05-21T01:27:35.319Z,100.00
2019-05-21T01:29:11.168Z,100.00
2019-05-21T01:30:47.206Z,100.00
2019-05-21T01:32:22.336Z,100.00
2019-05-21T01:33:58.385Z,100.00
2019-05-21T01:35:33.842Z,100.00
2019-05-21T01:37:09.590Z,100.00
2019-05-21T01:38:46.604Z,100.00
2019-05-21T01:40:22.344Z,100.00
2019-05-21T01:41:58.071Z,100.00
2019-05-21T01:43:34.233Z,100.00
2019-05-21T01:45:09.738Z,100.00
2019-05-21T01:46:45.372Z,100.00
2019-05-21T01:48:21.225Z,100.00
2019-05-21T01:49:57.564Z,100.00
2019-05-21T01:51:35.942Z,100.00
2019-05-21T01:53:14.314Z,100.00
2019-05-21T01:54:49.838Z,100.00
2019-05-21T01:56:25.852Z,100.00
2019-05-21T01:58:01.028Z,100.00
2019-05-21T01:59:38.043Z,100.00
2019-05-21T02:01:15.744Z,100.00
2019-05-21T02:02:54.910Z,100.00
2019-05-21T02:04:30.515Z,100.00
2019-05-21T02:06:06.509Z,100.00
2019-05-21T02:07:41.644Z,100.00
2019-05-21T02:09:17.823Z,100.00
2019-05-21T02:10:53.942Z,100.00
2019-05-21T02:12:30.099Z,100.00
2019-05-21T02:14:05.378Z,100.00
2019-05-21T02:15:44.104Z,100.00
2019-05-21T02:17:19.230Z,100.00
2019-05-21T02:18:55.339Z,100.00
2019-05-21T02:20:34.413Z,100.00
2019-05-21T02:22:12.404Z,100.00
2019-05-21T02:23:50.634Z,100.00
2019-05-21T02:25:26.458Z,100.00
2019-05-21T02:27:01.874Z,100.00
2019-05-21T02:28:39.462Z,100.00
2019-05-21T02:30:16.434Z,100.00
2019-05-21T02:31:52.035Z,100.00
2019-05-21T02:33:27.114Z,100.00
2019-05-21T02:35:03.142Z,100.00
2019-05-21T02:36:38.289Z,100.00
2019-05-21T02:38:14.462Z,100.00
2019-05-21T02:39:50.321Z,100.00
2019-05-21T02:41:25.985Z,100.00
2019-05-21T02:43:01.387Z,100.00
2019-05-21T02:44:37.126Z,100.00
2019-05-21T02:46:12.325Z,100.00
2019-05-21T02:47:55.911Z,100.00
2019-05-21T02:49:30.852Z,100.00
2019-05-21T02:51:06.879Z,100.00
2019-05-21T02:52:42.318Z,100.00
2019-05-21T02:54:18.052Z,100.00
2019-05-21T02:55:54.066Z,100.00
2019-05-21T02:57:40.183Z,100.00
2019-05-21T02:59:18.877Z,100.00
2019-05-21T03:01:07.254Z,100.00
2019-05-21T03:02:48.928Z,100.00
2019-05-21T03:04:24.143Z,100.00
2019-05-21T03:06:13.021Z,100.00
2019-05-21T03:07:36.698Z,100.00
2019-05-21T03:09:12.542Z,100.00
2019-05-21T03:10:47.663Z,100.00
2019-05-21T03:12:23.534Z,100.00
2019-05-21T03:13:58.739Z,100.00
2019-05-21T03:15:34.432Z,100.00
2019-05-21T03:17:13.072Z,100.00
2019-05-21T03:18:48.844Z,100.00
2019-05-21T03:20:24.345Z,100.00
2019-05-21T03:22:00.003Z,100.00
2019-05-21T03:23:35.375Z,100.00
2019-05-21T03:25:11.462Z,100.00
2019-05-21T03:26:46.702Z,100.00
2019-05-21T03:28:22.672Z,100.00
2019-05-21T03:29:58.145Z,100.00
2019-05-21T03:31:34.459Z,100.00
2019-05-21T03:33:09.983Z,100.00
2019-05-21T03:34:46.579Z,100.00
2019-05-21T03:36:32.636Z,100.00
2019-05-21T03:37:59.118Z,100.00
2019-05-21T03:39:34.254Z,100.00
2019-05-21T03:41:10.484Z,100.00
2019-05-21T03:42:46.075Z,100.00
2019-05-21T03:44:21.875Z,100.00
2019-05-21T03:45:56.987Z,100.00
2019-05-21T03:47:32.704Z,100.00
2019-05-21T03:49:09.344Z,100.00
2019-05-21T03:50:45.137Z,100.00
2019-05-21T03:52:20.962Z,100.00
2019-05-21T03:53:58.845Z,100.00
2019-05-21T03:55:34.127Z,100.00
2019-05-21T03:57:10.287Z,100.00
2019-05-21T03:58:45.618Z,100.00
2019-05-21T04:00:32.341Z,100.00
2019-05-21T04:02:07.948Z,100.00
2019-05-21T04:03:43.079Z,100.00
2019-05-21T04:05:25.062Z,100.00
2019-05-21T04:07:00.653Z,100.00
2019-05-21T04:08:35.790Z,100.00
2019-05-21T04:10:17.073Z,100.00
2019-05-21T04:11:53.386Z,100.00
2019-05-21T04:13:30.156Z,100.00
2019-05-21T04:15:24.071Z,100.00
2019-05-21T04:17:04.538Z,100.00
2019-05-21T04:18:45.280Z,100.00
2019-05-21T04:20:21.046Z,100.00
2019-05-21T04:21:56.117Z,100.00
2019-05-21T04:23:31.800Z,100.00
2019-05-21T04:25:06.981Z,100.00
2019-05-21T04:26:42.927Z,100.00
2019-05-21T04:28:18.371Z,100.00
2019-05-21T04:29:54.135Z,100.00
2019-05-21T04:31:29.421Z,100.00
2019-05-21T04:33:05.065Z,100.00
2019-05-21T04:34:43.723Z,100.00
2019-05-21T04:36:19.962Z,100.00
2019-05-21T04:37:55.585Z,100.00
2019-05-21T04:39:31.967Z,100.00
2019-05-21T04:41:07.219Z,100.00
2019-05-21T04:42:43.136Z,100.00
2019-05-21T04:44:44.944Z,100.00
2019-05-21T04:46:36.025Z,100.00
2019-05-21T04:48:32.951Z,100.00
2019-05-21T04:50:08.137Z,100.00
2019-05-21T04:51:44.042Z,100.00
2019-05-21T04:53:19.443Z,100.00
2019-05-21T04:54:55.152Z,100.00
2019-05-21T04:56:30.268Z,100.00
2019-05-21T04:58:20.752Z,100.00
2019-05-21T04:59:56.797Z,100.00
2019-05-21T05:01:35.556Z,100.00
2019-05-21T05:03:11.236Z,100.00
2019-05-21T05:04:47.499Z,100.00
2019-05-21T05:06:23.573Z,100.00
2019-05-21T05:08:00.158Z,100.00
2019-05-21T05:09:36.202Z,100.00
2019-05-21T05:11:12.244Z,100.00
2019-05-21T05:12:47.479Z,100.00
2019-05-21T05:14:25.286Z,100.00
2019-05-21T05:16:04.030Z,100.00
2019-05-21T05:17:39.017Z,100.00
2019-05-21T05:19:14.156Z,100.00
2019-05-21T05:20:49.963Z,100.00
2019-05-21T05:22:26.665Z,100.00
2019-05-21T05:24:08.150Z,100.00
2019-05-21T05:25:41.072Z,100.00
2019-05-21T05:27:16.861Z,100.00
2019-05-21T05:28:53.939Z,100.00
2019-05-21T05:30:32.074Z,100.00
2019-05-21T05:32:08.682Z,100.00
2019-05-21T05:33:45.438Z,100.00
2019-05-21T05:35:21.066Z,100.00
2019-05-21T05:36:57.318Z,100.00
2019-05-21T05:38:32.798Z,100.00
2019-05-21T05:40:08.823Z,100.00
2019-05-21T05:41:44.381Z,100.00
2019-05-21T05:43:25.583Z,100.00
2019-05-21T05:45:01.362Z,100.00
2019-05-21T05:46:36.706Z,100.00
2019-05-21T05:48:13.058Z,100.00
2019-05-21T05:49:54.749Z,100.00
2019-05-21T05:51:31.607Z,100.00
2019-05-21T05:53:07.111Z,100.00
2019-05-21T05:54:45.738Z,100.00
2019-05-21T05:56:24.814Z,100.00
2019-05-21T05:58:02.344Z,100.00
2019-05-21T05:59:45.192Z,100.00
2019-05-21T06:01:23.227Z,100.00
2019-05-21T06:03:01.101Z,100.00
2019-05-21T06:04:38.711Z,100.00
2019-05-21T06:06:32.735Z,100.00
2019-05-21T06:08:08.108Z,100.00
2019-05-21T06:09:43.625Z,100.00
2019-05-21T06:11:20.810Z,100.00
2019-05-21T06:12:56.139Z,100.00
2019-05-21T06:14:36.315Z,100.00
2019-05-21T06:16:11.572Z,100.00
2019-05-21T06:17:50.905Z,100.00
2019-05-21T06:19:26.125Z,100.00
2019-05-21T06:21:01.863Z,100.00
2019-05-21T06:22:38.232Z,100.00
2019-05-21T06:24:14.271Z,100.00
2019-05-21T06:25:49.358Z,100.00
2019-05-21T06:27:25.089Z,100.00
2019-05-21T06:29:00.267Z,100.00
2019-05-21T06:30:36.412Z,100.00
2019-05-21T06:32:11.737Z,100.00
2019-05-21T06:33:47.591Z,100.00
2019-05-21T06:35:22.977Z,100.00
2019-05-21T06:36:59.149Z,100.00
2019-05-21T06:38:35.316Z,100.00
2019-05-21T06:40:13.841Z,100.00
2019-05-21T06:41:48.907Z,100.00
2019-05-21T06:43:29.023Z,100.00
2019-05-21T06:45:15.766Z,100.00
2019-05-21T06:46:51.029Z,100.00
2019-05-21T06:48:32.049Z,100.00
2019-05-21T06:50:07.204Z,100.00
2019-05-21T06:51:47.591Z,100.00
2019-05-21T06:53:23.274Z,100.00
2019-05-21T06:54:59.691Z,100.00
2019-05-21T06:56:43.397Z,100.00
2019-05-21T06:58:19.273Z,100.00
2019-05-21T06:59:59.753Z,100.00
2019-05-21T07:01:36.696Z,100.00
2019-05-21T07:03:13.203Z,100.00
2019-05-21T07:04:51.812Z,100.00
2019-05-21T07:06:27.450Z,100.00
2019-05-21T07:08:06.132Z,100.00
2019-05-21T07:09:42.016Z,100.00
2019-05-21T07:11:20.459Z,100.00
2019-05-21T07:13:02.299Z,100.00
2019-05-21T07:14:41.249Z,100.00
2019-05-21T07:16:26.058Z,100.00
2019-05-21T07:18:02.361Z,100.00
2019-05-21T07:19:42.687Z,100.00
2019-05-21T07:21:20.488Z,100.00
2019-05-21T07:22:59.030Z,100.00
2019-05-21T07:24:38.294Z,100.00
2019-05-21T07:26:15.334Z,100.00
2019-05-21T07:27:53.351Z,100.00
2019-05-21T07:29:31.635Z,100.00
2019-05-21T07:31:09.550Z,100.00
2019-05-21T07:32:45.615Z,100.00
2019-05-21T07:34:25.091Z,100.00
2019-05-21T07:35:58.568Z,100.00
2019-05-21T07:37:33.705Z,100.00
2019-05-21T07:39:10.544Z,100.00
2019-05-21T07:40:47.219Z,100.00
2019-05-21T07:42:26.392Z,100.00
2019-05-21T07:44:01.446Z,100.00
2019-05-21T07:45:40.006Z,100.00
2019-05-21T07:47:17.476Z,100.00
2019-05-21T07:49:04.451Z,100.00
2019-05-21T07:50:42.931Z,100.00
2019-05-21T07:52:19.654Z,100.00
2019-05-21T07:53:55.833Z,100.00
2019-05-21T07:55:31.412Z,100.00
2019-05-21T07:57:07.056Z,100.00
2019-05-21T07:58:42.241Z,100.00
2019-05-21T08:00:19.886Z,100.00
2019-05-21T08:01:54.961Z,100.00
2019-05-21T08:03:33.956Z,100.00
2019-05-21T08:05:11.370Z,100.00
2019-05-21T08:06:47.576Z,100.00
2019-05-21T08:08:22.831Z,100.00
2019-05-21T08:10:00.333Z,100.00
2019-05-21T08:11:42.388Z,100.00
2019-05-21T08:13:18.164Z,100.00
2019-05-21T08:14:54.273Z,100.00
2019-05-21T08:16:34.852Z,100.00
2019-05-21T08:18:13.432Z,100.00
2019-05-21T08:19:49.253Z,100.00
2019-05-21T08:21:24.897Z,100.00
2019-05-21T08:23:03.784Z,100.00
2019-05-21T08:24:45.954Z,100.00
2019-05-21T08:26:21.739Z,100.00
2019-05-21T08:28:09.057Z,100.00
2019-05-21T08:29:45.558Z,100.00
2019-05-21T08:31:21.671Z,100.00
2019-05-21T08:33:03.541Z,100.00
2019-05-21T08:34:40.876Z,100.00
2019-05-21T08:36:21.354Z,100.00
2019-05-21T08:38:00.214Z,100.00
2019-05-21T08:39:35.730Z,100.00
2019-05-21T08:41:12.431Z,100.00
2019-05-21T08:42:50.542Z,100.00
2019-05-21T08:44:26.433Z,100.00
2019-05-21T08:46:02.264Z,100.00
2019-05-21T08:47:37.919Z,100.00
2019-05-21T08:49:17.612Z,100.00
2019-05-21T08:50:57.255Z,100.00
2019-05-21T08:52:33.706Z,100.00
2019-05-21T08:54:10.351Z,100.00
2019-05-21T08:55:47.350Z,100.00
2019-05-21T08:57:24.417Z,100.00
2019-05-21T08:59:02.838Z,100.00
2019-05-21T09:00:41.474Z,100.00
2019-05-21T09:02:17.247Z,100.00
2019-05-21T09:03:52.962Z,100.00
2019-05-21T09:05:31.389Z,100.00
2019-05-21T09:07:09.959Z,100.00
2019-05-21T09:08:47.418Z,100.00
2019-05-21T09:10:24.216Z,100.00
2019-05-21T09:12:01.512Z,100.00
2019-05-21T09:13:38.834Z,100.00
2019-05-21T09:15:18.164Z,100.00
2019-05-21T09:16:56.862Z,100.00
2019-05-21T09:18:33.960Z,100.00
2019-05-21T09:20:12.066Z,100.00
2019-05-21T09:21:47.570Z,100.00
2019-05-21T09:23:23.251Z,100.00
2019-05-21T09:24:59.206Z,100.00
2019-05-21T09:26:36.707Z,100.00
2019-05-21T09:28:12.327Z,100.00
2019-05-21T09:29:50.883Z,100.00
2019-05-21T09:31:28.826Z,100.00
2019-05-21T09:33:05.200Z,100.00
2019-05-21T09:34:48.730Z,100.00
2019-05-21T09:36:24.672Z,100.00
2019-05-21T09:38:05.200Z,100.00
2019-05-21T09:39:41.018Z,100.00
2019-05-21T09:41:19.250Z,100.00
2019-05-21T09:43:03.503Z,100.00
2019-05-21T09:44:39.330Z,100.00
2019-05-21T09:46:14.421Z,100.00
2019-05-21T09:47:50.658Z,100.00
2019-05-21T09:49:29.199Z,100.00
2019-05-21T09:51:05.418Z,100.00
2019-05-21T09:52:41.278Z,100.00
2019-05-21T09:54:17.233Z,100.00
2019-05-21T09:55:52.881Z,100.00
2019-05-21T09:57:39.894Z,100.00
2019-05-21T09:59:24.489Z,100.00
2019-05-21T10:01:07.758Z,100.00
2019-05-21T10:02:47.393Z,100.00
2019-05-21T10:04:29.081Z,100.00
2019-05-21T10:06:05.208Z,100.00
2019-05-21T10:07:41.616Z,100.00
2019-05-21T10:09:29.256Z,100.00
2019-05-21T10:11:09.841Z,100.00
2019-05-21T10:12:59.418Z,100.00
2019-05-21T10:14:35.575Z,100.00
2019-05-21T10:16:28.024Z,100.00
2019-05-21T10:17:58.746Z,100.00
2019-05-21T10:19:40.388Z,100.00
2019-05-21T10:21:16.195Z,100.00
2019-05-21T10:22:55.823Z,100.00
2019-05-21T10:24:34.126Z,100.00
2019-05-21T10:26:13.296Z,100.00
2019-05-21T10:27:55.252Z,100.00
2019-05-21T10:29:34.148Z,100.00
2019-05-21T10:31:20.440Z,100.00
2019-05-21T10:32:56.418Z,100.00
2019-05-21T10:34:31.888Z,100.00
2019-05-21T10:36:21.391Z,100.00
2019-05-21T10:38:18.546Z,100.00
2019-05-21T10:40:12.630Z,100.00
2019-05-21T10:42:05.417Z,100.00
2019-05-21T10:43:41.557Z,100.00
2019-05-21T10:45:29.889Z,100.00
2019-05-21T10:47:11.069Z,100.00
2019-05-21T10:48:51.928Z,100.00
2019-05-21T10:50:28.740Z,100.00
2019-05-21T10:52:04.393Z,100.00
2019-05-21T10:53:46.952Z,100.00
2019-05-21T10:55:29.388Z,100.00
2019-05-21T10:57:11.227Z,100.00
2019-05-21T10:59:01.934Z,100.00
2019-05-21T11:00:40.494Z,100.00
2019-05-21T11:02:34.410Z,100.00
2019-05-21T11:04:32.338Z,100.00
2019-05-21T11:06:12.044Z,100.00
2019-05-21T11:07:47.229Z,100.00
2019-05-21T11:09:23.566Z,100.00
2019-05-21T11:11:02.268Z,100.00
2019-05-21T11:13:03.555Z,100.00
2019-05-21T11:14:55.109Z,100.00
2019-05-21T11:16:31.378Z,100.00
2019-05-21T11:18:12.006Z,100.00
2019-05-21T11:19:50.595Z,100.00
2019-05-21T11:21:36.381Z,100.00
2019-05-21T11:23:16.354Z,100.00
2019-05-21T11:24:51.749Z,100.00
2019-05-21T11:26:30.566Z,76.55
2019-05-21T11:28:06.817Z,76.21
2019-05-21T11:29:43.585Z,76.10
2019-05-21T11:31:21.724Z,75.97
2019-05-21T11:32:57.506Z,75.85
2019-05-21T11:34:35.925Z,75.88
2019-05-21T11:36:13.221Z,75.78
2019-05-21T11:37:59.543Z,75.72
2019-05-21T11:39:38.651Z,75.69
2019-05-21T11:41:19.349Z,75.62
2019-05-21T11:42:54.673Z,75.69
2019-05-21T11:44:31.352Z,75.65
2019-05-21T11:46:09.055Z,75.59
2019-05-21T11:47:54.452Z,75.59
2019-05-21T11:49:27.341Z,75.55
2019-05-21T11:51:08.159Z,75.53
2019-05-21T11:52:44.619Z,75.56
2019-05-21T11:54:24.955Z,75.56
2019-05-21T11:56:00.699Z,75.59
2019-05-21T11:57:40.766Z,75.57
2019-05-21T11:59:20.750Z,75.55
2019-05-21T12:01:04.214Z,75.53
2019-05-21T12:02:41.166Z,75.55
2019-05-21T12:04:27.522Z,75.58
2019-05-21T12:06:11.127Z,75.49
2019-05-21T12:07:47.274Z,75.42
2019-05-21T12:09:35.064Z,75.33
2019-05-21T12:11:08.666Z,75.39
2019-05-21T12:12:44.072Z,75.33
2019-05-21T12:14:23.745Z,75.35
2019-05-21T12:16:02.878Z,75.36
2019-05-21T12:17:53.054Z,75.33
2019-05-21T12:19:17.310Z,75.33
2019-05-21T12:20:59.315Z,75.35
2019-05-21T12:22:34.869Z,75.32
2019-05-21T12:24:11.157Z,75.33
2019-05-21T12:25:48.279Z,75.32
2019-05-21T12:27:25.636Z,75.28
2019-05-21T12:29:03.285Z,75.27
2019-05-21T12:30:42.186Z,75.27
2019-05-21T12:32:24.164Z,75.28
2019-05-21T12:34:09.925Z,75.26
2019-05-21T12:35:45.785Z,75.25
2019-05-21T12:37:22.628Z,75.23
2019-05-21T12:39:13.058Z,75.21
2019-05-21T12:40:41.707Z,75.20
2019-05-21T12:42:19.559Z,75.18
2019-05-21T12:43:58.893Z,75.18
2019-05-21T12:45:36.039Z,75.17
2019-05-21T12:47:17.512Z,75.17
2019-05-21T12:48:54.900Z,75.14
2019-05-21T12:50:31.407Z,75.13
2019-05-21T12:52:07.205Z,75.14
2019-05-21T12:53:44.873Z,75.11
2019-05-21T12:55:21.252Z,75.10
2019-05-21T12:56:57.773Z,75.10
2019-05-21T12:58:33.005Z,75.09
2019-05-21T13:00:14.095Z,75.07
2019-05-21T13:01:49.899Z,75.04
2019-05-21T13:03:29.890Z,75.01
2019-05-21T13:05:05.496Z,75.03
2019-05-21T13:06:41.414Z,75.08
2019-05-21T13:08:20.102Z,75.02
2019-05-21T13:10:05.720Z,75.02
2019-05-21T13:11:41.512Z,75.03
2019-05-21T13:13:16.534Z,75.01
2019-05-21T13:14:54.488Z,75.04
2019-05-21T13:16:33.018Z,75.04
2019-05-21T13:18:14.234Z,75.02
2019-05-21T13:19:57.082Z,74.99
2019-05-21T13:21:29.721Z,74.99
2019-05-21T13:23:36.071Z,74.98
2019-05-21T13:25:12.697Z,74.96
2019-05-21T13:26:48.453Z,74.97
2019-05-21T13:28:28.315Z,74.97
2019-05-21T13:30:07.303Z,74.97
2019-05-21T13:31:42.771Z,74.96
2019-05-21T13:33:21.357Z,74.97
2019-05-21T13:34:59.312Z,74.98
2019-05-21T13:36:35.297Z,74.97
2019-05-21T13:38:13.594Z,74.95
2019-05-21T13:39:50.411Z,74.95
2019-05-21T13:41:27.116Z,74.97
2019-05-21T13:43:09.088Z,74.96
2019-05-21T13:44:48.667Z,74.98
2019-05-21T13:46:24.372Z,74.98
2019-05-21T13:48:03.785Z,74.99
2019-05-21T13:49:40.247Z,74.99
2019-05-21T13:51:21.756Z,74.99
2019-05-21T13:52:59.959Z,74.99
2019-05-21T13:54:36.455Z,74.99
2019-05-21T13:56:11.743Z,75.01
2019-05-21T13:57:53.129Z,74.99
2019-05-21T13:59:34.557Z,74.98
2019-05-21T14:01:19.316Z,74.95
2019-05-21T14:02:54.756Z,75.00
2019-05-21T14:04:38.931Z,75.00
2019-05-21T14:06:14.087Z,74.95
2019-05-21T14:07:51.901Z,74.97
2019-05-21T14:09:27.272Z,74.96
2019-05-21T14:11:07.811Z,74.95
2019-05-21T14:12:43.285Z,74.96
2019-05-21T14:14:28.211Z,74.96
2019-05-21T14:16:03.119Z,74.96
2019-05-21T14:17:40.543Z,74.96
2019-05-21T14:19:18.495Z,74.98
2019-05-21T14:20:58.478Z,74.98
2019-05-21T14:22:36.485Z,74.97
2019-05-21T14:24:16.009Z,74.96
2019-05-21T14:25:48.686Z,74.97
2019-05-21T14:27:43.115Z,74.97
2019-05-21T14:29:18.105Z,74.98
2019-05-21T14:30:58.207Z,74.97
2019-05-21T14:32:37.232Z,74.96
2019-05-21T14:34:14.341Z,74.98
2019-05-21T14:35:50.179Z,74.99
2019-05-21T14:37:28.104Z,74.98
2019-05-21T14:39:09.476Z,74.99
2019-05-21T14:40:48.893Z,74.98
2019-05-21T14:42:25.442Z,74.98
2019-05-21T14:44:01.375Z,74.99
2019-05-21T14:46:01.092Z,74.98
2019-05-21T14:47:40.195Z,74.98
2019-05-21T14:49:32.855Z,74.99
2019-05-21T14:51:14.240Z,74.96
2019-05-21T14:52:52.321Z,74.98
2019-05-21T14:54:29.577Z,74.99
2019-05-21T14:56:05.651Z,74.99
2019-05-21T14:57:44.356Z,74.99
2019-05-21T14:59:22.432Z,74.98
2019-05-21T15:00:58.754Z,74.98
2019-05-21T15:02:37.140Z,74.99
2019-05-21T15:04:14.622Z,75.01
2019-05-21T15:05:54.311Z,74.99
2019-05-21T15:07:33.419Z,74.98
2019-05-21T15:09:08.968Z,74.98
2019-05-21T15:10:49.075Z,75.03
2019-05-21T15:12:26.092Z,75.08
2019-05-21T15:14:02.627Z,75.13
2019-05-21T15:15:39.952Z,75.13
2019-05-21T15:17:20.779Z,75.14
2019-05-21T15:18:58.986Z,75.15
2019-05-21T15:21:02.438Z,75.15
2019-05-21T15:22:39.896Z,75.14
2019-05-21T15:24:22.486Z,75.13
2019-05-21T15:26:03.407Z,75.13
2019-05-21T15:27:44.767Z,75.16
2019-05-21T15:29:40.441Z,75.14
2019-05-21T15:31:31.352Z,75.13
2019-05-21T15:33:16.338Z,75.14
2019-05-21T15:35:00.416Z,75.15
2019-05-21T15:38:23.430Z,75.12
2019-05-21T15:40:00.839Z,75.10
2019-05-21T15:41:44.513Z,75.11
2019-05-21T15:43:21.380Z,75.10
2019-05-21T15:45:44.552Z,75.11
2019-05-21T15:47:24.619Z,75.10
2019-05-21T15:49:01.170Z,75.10
2019-05-21T15:50:36.997Z,75.10
2019-05-21T15:52:12.777Z,75.08
2019-05-21T15:53:51.830Z,75.07
2019-05-21T15:55:47.290Z,75.06
2019-05-21T15:57:26.262Z,75.06
2019-05-21T15:59:07.134Z,75.07
2019-05-21T16:00:45.519Z,75.07
2019-05-21T16:02:20.832Z,75.07
2019-05-21T16:03:56.635Z,75.07
2019-05-21T16:05:35.661Z,75.09
2019-05-21T16:07:13.498Z,75.08
2019-05-21T16:08:48.685Z,75.07
2019-05-21T16:10:29.099Z,75.08
2019-05-21T16:12:15.923Z,75.07
2019-05-21T16:13:54.840Z,75.08
2019-05-21T16:15:35.103Z,75.09
2019-05-21T16:17:11.578Z,75.11
2019-05-21T16:18:48.497Z,75.09
2019-05-21T16:20:25.304Z,75.10
2019-05-21T16:22:01.866Z,75.10
2019-05-21T16:23:52.581Z,75.09
2019-05-21T16:25:36.791Z,75.09
2019-05-21T16:27:20.721Z,75.09
2019-05-21T16:29:00.531Z,75.09
2019-05-21T16:30:49.438Z,75.09
2019-05-21T16:34:17.180Z,75.10
2019-05-21T16:35:55.135Z,75.11
2019-05-21T16:37:31.254Z,75.10
2019-05-21T16:39:10.529Z,75.13
2019-05-21T16:40:51.975Z,75.26
2019-05-21T16:42:38.235Z,75.27
2019-05-21T16:44:14.358Z,75.27
2019-05-21T16:45:57.291Z,75.27
2019-05-21T16:47:46.281Z,75.25
2019-05-21T16:49:20.408Z,75.23
2019-05-21T16:51:01.015Z,75.21
2019-05-21T16:52:39.068Z,75.23
2019-05-21T16:54:16.524Z,75.20
2019-05-21T16:55:58.184Z,75.21
2019-05-21T16:57:44.246Z,75.21
2019-05-21T16:59:20.127Z,75.21
2019-05-21T17:00:56.309Z,75.19
2019-05-21T17:02:37.340Z,75.17
2019-05-21T17:04:21.054Z,75.15
2019-05-21T17:06:00.506Z,75.18
2019-05-21T17:07:40.772Z,75.18
2019-05-21T17:09:18.947Z,75.14
2019-05-21T17:10:59.262Z,75.15
2019-05-21T17:12:45.186Z,75.24
2019-05-21T17:14:21.395Z,75.25
2019-05-21T17:16:04.413Z,75.24
2019-05-21T17:17:48.905Z,75.25
2019-05-21T17:19:37.680Z,75.25
2019-05-21T17:21:24.189Z,75.26
2019-05-21T17:23:05.184Z,74.59
2019-05-21T17:24:50.283Z,74.54
2019-05-21T17:26:27.431Z,74.49
2019-05-21T17:28:17.141Z,74.48
2019-05-21T17:29:57.897Z,74.45
2019-05-21T17:31:36.287Z,74.42
2019-05-21T17:33:16.243Z,74.41
2019-05-21T17:34:57.782Z,74.40
2019-05-21T17:36:38.113Z,74.36
2019-05-21T17:38:16.178Z,74.37
2019-05-21T17:39:55.447Z,74.46
2019-05-21T17:41:35.005Z,74.47
2019-05-21T17:43:10.799Z,74.46
2019-05-21T17:44:48.786Z,74.46
2019-05-21T17:46:25.862Z,74.47
2019-05-21T17:48:03.540Z,74.48
2019-05-21T17:49:38.735Z,74.50
2019-05-21T17:51:15.272Z,74.49
2019-05-21T17:52:50.731Z,74.52
2019-05-21T17:54:28.074Z,74.51
2019-05-21T17:56:21.850Z,74.52
2019-05-21T17:58:16.445Z,74.52
2019-05-21T17:59:56.655Z,74.53
2019-05-21T18:01:36.958Z,74.53
2019-05-21T18:03:14.841Z,74.58
2019-05-21T18:04:52.558Z,74.55
2019-05-21T18:06:33.335Z,74.55
2019-05-21T18:08:11.341Z,74.56
2019-05-21T18:09:48.031Z,74.55
2019-05-21T18:11:26.571Z,74.52
2019-05-21T18:13:05.710Z,74.53
2019-05-21T18:14:41.579Z,74.58
2019-05-21T18:16:22.102Z,74.55
2019-05-21T18:17:59.247Z,74.54
2019-05-21T18:19:43.832Z,74.54
2019-05-21T18:21:22.747Z,74.59
2019-05-21T18:23:03.442Z,74.54
2019-05-21T18:24:42.831Z,74.53
2019-05-21T18:26:19.950Z,74.52
2019-05-21T18:27:58.543Z,74.76
2019-05-21T18:29:42.969Z,74.78
2019-05-21T18:31:33.346Z,74.78
2019-05-21T18:33:09.447Z,74.92
2019-05-21T18:34:46.618Z,74.97
2019-05-21T18:36:49.386Z,74.97
2019-05-21T18:38:32.154Z,74.93
2019-05-21T18:40:22.072Z,74.96
2019-05-21T18:42:20.711Z,74.61
2019-05-21T18:43:42.515Z,74.60
2019-05-21T18:45:24.243Z,74.64
2019-05-21T18:47:01.146Z,74.64
2019-05-21T18:48:42.611Z,74.63
2019-05-21T18:50:34.702Z,74.62
2019-05-21T18:52:08.313Z,74.61
2019-05-21T18:53:45.599Z,74.58
2019-05-21T18:55:25.292Z,74.57
2019-05-21T18:57:04.527Z,74.56
2019-05-21T18:58:44.923Z,74.54
2019-05-21T19:00:28.815Z,74.52
2019-05-21T19:02:08.970Z,74.51
2019-05-21T19:03:48.490Z,74.51
2019-05-21T19:05:29.125Z,74.50
2019-05-21T19:07:11.268Z,74.52
2019-05-21T19:08:56.447Z,74.70
2019-05-21T19:10:34.281Z,74.88
2019-05-21T19:13:00.165Z,74.85
2019-05-21T19:14:35.325Z,74.84
2019-05-21T19:16:15.315Z,74.84
2019-05-21T19:17:51.730Z,74.85
2019-05-21T19:19:31.689Z,74.79
2019-05-21T19:21:09.509Z,74.69
2019-05-21T19:22:46.651Z,74.43
2019-05-21T19:24:34.336Z,74.38
2019-05-21T19:26:36.515Z,74.36
2019-05-21T19:28:18.301Z,74.33
2019-05-21T19:29:55.168Z,74.34
2019-05-21T19:31:49.495Z,74.31
2019-05-21T19:33:27.554Z,74.27
2019-05-21T19:35:03.771Z,74.28
2019-05-21T19:36:38.829Z,74.25
2019-05-21T19:38:14.696Z,74.26
2019-05-21T19:39:52.312Z,74.24
2019-05-21T19:41:34.098Z,74.22
2019-05-21T19:43:15.360Z,74.23
2019-05-21T19:45:08.360Z,74.21
2019-05-21T19:46:44.202Z,74.21
2019-05-21T19:48:21.465Z,74.20
2019-05-21T19:50:05.338Z,74.18
2019-05-21T19:51:47.862Z,74.16
2019-05-21T19:53:26.627Z,74.18
2019-05-21T19:55:04.566Z,74.17
2019-05-21T19:56:42.731Z,74.17
2019-05-21T19:58:27.093Z,74.16
2019-05-21T20:00:14.764Z,74.16
2019-05-21T20:01:55.653Z,74.14
2019-05-21T20:03:38.076Z,74.11
2019-05-21T20:05:14.559Z,73.99
2019-05-21T20:06:58.978Z,73.99
2019-05-21T20:08:43.175Z,73.96
2019-05-21T20:10:21.607Z,73.96
2019-05-21T20:12:07.795Z,73.98
2019-05-21T20:13:50.464Z,74.09
2019-05-21T20:15:33.206Z,74.11
2019-05-21T20:17:13.355Z,74.08
2019-05-21T20:18:50.413Z,74.08
2019-05-21T20:20:39.454Z,74.09
2019-05-21T20:22:15.730Z,74.08
2019-05-21T20:23:54.230Z,73.94
2019-05-21T20:25:32.897Z,74.06
2019-05-21T20:27:13.616Z,73.94
2019-05-21T20:29:01.073Z,74.06
2019-05-21T20:30:44.299Z,74.03
2019-05-21T20:32:25.408Z,74.04
2019-05-21T20:34:07.784Z,74.03
2019-05-21T20:35:49.089Z,74.06
2019-05-21T20:37:28.812Z,74.06
2019-05-21T20:39:12.342Z,74.05
2019-05-21T20:40:52.677Z,74.09
2019-05-21T20:42:30.100Z,74.11
2019-05-21T20:44:12.659Z,74.08
2019-05-21T20:45:56.685Z,73.94
2019-05-21T20:47:47.203Z,73.93
2019-05-21T20:49:23.207Z,73.95
2019-05-21T20:51:02.777Z,73.94
2019-05-21T20:52:41.811Z,73.94
2019-05-21T20:54:19.773Z,73.93
2019-05-21T20:55:55.780Z,73.94
2019-05-21T20:57:32.264Z,73.96
2019-05-21T20:59:14.575Z,73.92
2019-05-21T21:01:15.309Z,73.92
2019-05-21T21:02:46.596Z,73.93